sensor_id;sensor_type;location;lat;lon;timestamp;P1;durP1;ratioP1;P2;durP2;ratioP2
3259;SDS011;68938;48.150;14.004;2023-07-13T00:02:06;14.03;;;8.50;;
3259;SDS011;68938;48.150;14.004;2023-07-13T00:04:34;9.37;;;8.40;;
3259;SDS011;68938;48.150;14.004;2023-07-13T00:07:01;10.60;;;7.20;;
3259;SDS011;68938;48.150;14.004;2023-07-13T00:09:29;13.07;;;7.47;;
3259;SDS011;68938;48.150;14.004;2023-07-13T00:11:56;10.60;;;7.57;;
3259;SDS011;68938;48.150;14.004;2023-07-13T00:14:24;10.10;;;6.50;;
3259;SDS011;68938;48.150;14.004;2023-07-13T00:16:54;14.00;;;8.17;;
3259;SDS011;68938;48.150;14.004;2023-07-13T00:19:22;10.27;;;7.87;;
3259;SDS011;68938;48.150;14.004;2023-07-13T00:21:50;11.23;;;7.40;;
3259;SDS011;68938;48.150;14.004;2023-07-13T00:24:17;9.33;;;6.97;;
3259;SDS011;68938;48.150;14.004;2023-07-13T00:26:45;12.33;;;7.23;;
3259;SDS011;68938;48.150;14.004;2023-07-13T00:29:13;17.03;;;7.33;;
3259;SDS011;68938;48.150;14.004;2023-07-13T00:31:40;11.37;;;6.87;;
3259;SDS011;68938;48.150;14.004;2023-07-13T00:34:08;7.50;;;6.90;;
3259;SDS011;68938;48.150;14.004;2023-07-13T00:36:35;6.70;;;6.20;;
3259;SDS011;68938;48.150;14.004;2023-07-13T00:39:02;7.00;;;6.40;;
3259;SDS011;68938;48.150;14.004;2023-07-13T00:41:32;7.77;;;6.97;;
3259;SDS011;68938;48.150;14.004;2023-07-13T00:44:00;10.73;;;7.33;;
3259;SDS011;68938;48.150;14.004;2023-07-13T00:46:30;8.57;;;6.90;;
3259;SDS011;68938;48.150;14.004;2023-07-13T00:49:01;10.13;;;7.33;;
3259;SDS011;68938;48.150;14.004;2023-07-13T00:51:39;7.87;;;7.10;;
3259;SDS011;68938;48.150;14.004;2023-07-13T00:54:33;7.20;;;6.70;;
3259;SDS011;68938;48.150;14.004;2023-07-13T00:57:09;7.27;;;6.67;;
3259;SDS011;68938;48.150;14.004;2023-07-13T00:59:42;7.80;;;7.20;;
3259;SDS011;68938;48.150;14.004;2023-07-13T01:02:14;8.40;;;7.70;;
3259;SDS011;68938;48.150;14.004;2023-07-13T01:04:43;7.60;;;6.90;;
3259;SDS011;68938;48.150;14.004;2023-07-13T01:07:11;8.20;;;7.53;;
3259;SDS011;68938;48.150;14.004;2023-07-13T01:09:39;9.17;;;8.30;;
3259;SDS011;68938;48.150;14.004;2023-07-13T01:12:06;10.37;;;7.27;;
3259;SDS011;68938;48.150;14.004;2023-07-13T01:14:34;8.33;;;7.30;;
3259;SDS011;68938;48.150;14.004;2023-07-13T01:17:02;9.10;;;8.03;;
3259;SDS011;68938;48.150;14.004;2023-07-13T01:22:13;8.73;;;7.23;;
3259;SDS011;68938;48.150;14.004;2023-07-13T01:24:44;8.00;;;7.20;;
3259;SDS011;68938;48.150;14.004;2023-07-13T01:27:15;8.00;;;7.30;;
3259;SDS011;68938;48.150;14.004;2023-07-13T01:29:49;7.57;;;6.87;;
3259;SDS011;68938;48.150;14.004;2023-07-13T01:32:22;8.93;;;7.97;;
3259;SDS011;68938;48.150;14.004;2023-07-13T01:34:52;13.37;;;9.10;;
3259;SDS011;68938;48.150;14.004;2023-07-13T01:37:21;10.13;;;7.73;;
3259;SDS011;68938;48.150;14.004;2023-07-13T01:39:50;9.33;;;8.43;;
3259;SDS011;68938;48.150;14.004;2023-07-13T01:42:17;13.23;;;8.70;;
3259;SDS011;68938;48.150;14.004;2023-07-13T01:44:44;9.50;;;8.60;;
3259;SDS011;68938;48.150;14.004;2023-07-13T01:47:11;11.40;;;8.97;;
3259;SDS011;68938;48.150;14.004;2023-07-13T01:49:41;12.67;;;8.10;;
3259;SDS011;68938;48.150;14.004;2023-07-13T01:52:08;10.73;;;9.53;;
3259;SDS011;68938;48.150;14.004;2023-07-13T01:54:36;9.23;;;8.43;;
3259;SDS011;68938;48.150;14.004;2023-07-13T01:57:03;8.57;;;7.50;;
3259;SDS011;68938;48.150;14.004;2023-07-13T01:59:30;9.07;;;8.27;;
3259;SDS011;68938;48.150;14.004;2023-07-13T02:02:00;8.17;;;7.57;;
3259;SDS011;68938;48.150;14.004;2023-07-13T02:04:28;11.13;;;7.90;;
3259;SDS011;68938;48.150;14.004;2023-07-13T02:06:56;9.20;;;8.40;;
3259;SDS011;68938;48.150;14.004;2023-07-13T02:09:23;9.03;;;8.23;;
3259;SDS011;68938;48.150;14.004;2023-07-13T02:11:50;9.13;;;8.27;;
3259;SDS011;68938;48.150;14.004;2023-07-13T02:14:17;8.17;;;7.20;;
3259;SDS011;68938;48.150;14.004;2023-07-13T02:16:44;8.57;;;7.47;;
3259;SDS011;68938;48.150;14.004;2023-07-13T02:19:11;8.10;;;7.30;;
3259;SDS011;68938;48.150;14.004;2023-07-13T02:21:39;7.87;;;7.10;;
3259;SDS011;68938;48.150;14.004;2023-07-13T02:24:07;6.67;;;6.17;;
3259;SDS011;68938;48.150;14.004;2023-07-13T02:26:34;7.53;;;6.80;;
3259;SDS011;68938;48.150;14.004;2023-07-13T02:29:01;6.93;;;6.20;;
3259;SDS011;68938;48.150;14.004;2023-07-13T02:31:28;7.27;;;6.67;;
3259;SDS011;68938;48.150;14.004;2023-07-13T02:33:56;6.57;;;5.97;;
3259;SDS011;68938;48.150;14.004;2023-07-13T02:36:23;7.67;;;7.00;;
3259;SDS011;68938;48.150;14.004;2023-07-13T02:38:51;8.10;;;7.40;;
3259;SDS011;68938;48.150;14.004;2023-07-13T02:41:20;13.60;;;8.60;;
3259;SDS011;68938;48.150;14.004;2023-07-13T02:43:49;8.97;;;8.10;;
3259;SDS011;68938;48.150;14.004;2023-07-13T02:46:16;8.50;;;7.80;;
3259;SDS011;68938;48.150;14.004;2023-07-13T02:48:43;8.87;;;7.80;;
3259;SDS011;68938;48.150;14.004;2023-07-13T02:51:11;10.40;;;7.97;;
3259;SDS011;68938;48.150;14.004;2023-07-13T02:53:38;9.10;;;7.80;;
3259;SDS011;68938;48.150;14.004;2023-07-13T02:56:05;10.80;;;8.27;;
3259;SDS011;68938;48.150;14.004;2023-07-13T02:58:32;8.53;;;7.80;;
3259;SDS011;68938;48.150;14.004;2023-07-13T03:01:05;8.13;;;7.53;;
3259;SDS011;68938;48.150;14.004;2023-07-13T03:03:35;9.83;;;8.93;;
3259;SDS011;68938;48.150;14.004;2023-07-13T03:06:03;7.23;;;6.20;;
3259;SDS011;68938;48.150;14.004;2023-07-13T03:08:31;8.80;;;7.90;;
3259;SDS011;68938;48.150;14.004;2023-07-13T03:11:02;8.77;;;7.87;;
3259;SDS011;68938;48.150;14.004;2023-07-13T03:13:33;7.93;;;7.30;;
3259;SDS011;68938;48.150;14.004;2023-07-13T03:16:00;8.50;;;7.80;;
3259;SDS011;68938;48.150;14.004;2023-07-13T03:18:28;8.23;;;7.53;;
3259;SDS011;68938;48.150;14.004;2023-07-13T03:20:56;8.33;;;7.60;;
3259;SDS011;68938;48.150;14.004;2023-07-13T03:23:23;10.47;;;7.90;;
3259;SDS011;68938;48.150;14.004;2023-07-13T03:26:05;8.47;;;7.70;;
3259;SDS011;68938;48.150;14.004;2023-07-13T03:28:42;8.60;;;7.47;;
3259;SDS011;68938;48.150;14.004;2023-07-13T03:31:12;10.37;;;7.60;;
3259;SDS011;68938;48.150;14.004;2023-07-13T03:33:43;7.30;;;6.53;;
3259;SDS011;68938;48.150;14.004;2023-07-13T03:36:15;6.63;;;6.03;;
3259;SDS011;68938;48.150;14.004;2023-07-13T03:38:53;7.27;;;6.63;;
3259;SDS011;68938;48.150;14.004;2023-07-13T03:41:24;5.97;;;5.33;;
3259;SDS011;68938;48.150;14.004;2023-07-13T03:43:54;5.43;;;4.93;;
3259;SDS011;68938;48.150;14.004;2023-07-13T03:46:21;4.53;;;4.23;;
3259;SDS011;68938;48.150;14.004;2023-07-13T03:48:49;5.80;;;5.40;;
3259;SDS011;68938;48.150;14.004;2023-07-13T03:51:19;5.63;;;5.20;;
3259;SDS011;68938;48.150;14.004;2023-07-13T03:53:46;10.40;;;5.07;;
3259;SDS011;68938;48.150;14.004;2023-07-13T03:56:16;4.93;;;4.63;;
3259;SDS011;68938;48.150;14.004;2023-07-13T03:58:46;6.23;;;4.70;;
3259;SDS011;68938;48.150;14.004;2023-07-13T04:01:17;7.93;;;5.00;;
3259;SDS011;68938;48.150;14.004;2023-07-13T04:03:47;5.37;;;4.87;;
3259;SDS011;68938;48.150;14.004;2023-07-13T04:06:19;6.13;;;5.40;;
3259;SDS011;68938;48.150;14.004;2023-07-13T04:08:53;4.73;;;4.43;;
3259;SDS011;68938;48.150;14.004;2023-07-13T04:11:26;5.57;;;5.07;;
3259;SDS011;68938;48.150;14.004;2023-07-13T04:13:56;5.50;;;5.10;;
3259;SDS011;68938;48.150;14.004;2023-07-13T04:16:24;8.73;;;5.10;;
3259;SDS011;68938;48.150;14.004;2023-07-13T04:18:53;4.43;;;4.13;;
3259;SDS011;68938;48.150;14.004;2023-07-13T04:21:23;4.70;;;4.30;;
3259;SDS011;68938;48.150;14.004;2023-07-13T04:23:50;5.30;;;4.80;;
3259;SDS011;68938;48.150;14.004;2023-07-13T04:26:17;4.87;;;4.33;;
3259;SDS011;68938;48.150;14.004;2023-07-13T04:28:45;4.77;;;4.33;;
3259;SDS011;68938;48.150;14.004;2023-07-13T04:31:13;4.37;;;4.07;;
3259;SDS011;68938;48.150;14.004;2023-07-13T04:33:43;3.97;;;3.67;;
3259;SDS011;68938;48.150;14.004;2023-07-13T04:36:13;4.00;;;3.80;;
3259;SDS011;68938;48.150;14.004;2023-07-13T04:38:42;4.80;;;4.50;;
3259;SDS011;68938;48.150;14.004;2023-07-13T04:41:11;4.47;;;4.00;;
3259;SDS011;68938;48.150;14.004;2023-07-13T04:43:39;4.23;;;3.60;;
3259;SDS011;68938;48.150;14.004;2023-07-13T04:46:07;4.70;;;3.90;;
3259;SDS011;68938;48.150;14.004;2023-07-13T04:48:38;4.30;;;3.47;;
3259;SDS011;68938;48.150;14.004;2023-07-13T04:51:06;3.73;;;3.47;;
3259;SDS011;68938;48.150;14.004;2023-07-13T04:53:35;4.27;;;3.60;;
3259;SDS011;68938;48.150;14.004;2023-07-13T04:56:03;5.73;;;3.47;;
3259;SDS011;68938;48.150;14.004;2023-07-13T04:58:33;3.10;;;2.80;;
3259;SDS011;68938;48.150;14.004;2023-07-13T05:01:01;3.67;;;3.27;;
3259;SDS011;68938;48.150;14.004;2023-07-13T05:03:30;4.47;;;3.17;;
3259;SDS011;68938;48.150;14.004;2023-07-13T05:06:03;3.70;;;3.00;;
3259;SDS011;68938;48.150;14.004;2023-07-13T05:08:33;7.73;;;3.57;;
3259;SDS011;68938;48.150;14.004;2023-07-13T05:11:01;3.67;;;3.37;;
3259;SDS011;68938;48.150;14.004;2023-07-13T05:13:32;3.53;;;3.33;;
3259;SDS011;68938;48.150;14.004;2023-07-13T05:16:00;3.63;;;3.33;;
3259;SDS011;68938;48.150;14.004;2023-07-13T05:18:30;3.47;;;3.17;;
3259;SDS011;68938;48.150;14.004;2023-07-13T05:21:03;4.17;;;3.97;;
3259;SDS011;68938;48.150;14.004;2023-07-13T05:23:34;4.53;;;3.47;;
3259;SDS011;68938;48.150;14.004;2023-07-13T05:26:03;4.13;;;3.83;;
3259;SDS011;68938;48.150;14.004;2023-07-13T05:28:36;5.57;;;4.43;;
3259;SDS011;68938;48.150;14.004;2023-07-13T05:31:06;6.60;;;4.80;;
3259;SDS011;68938;48.150;14.004;2023-07-13T05:33:36;6.00;;;5.50;;
3259;SDS011;68938;48.150;14.004;2023-07-13T05:36:05;7.70;;;5.57;;
3259;SDS011;68938;48.150;14.004;2023-07-13T05:38:32;8.10;;;5.10;;
3259;SDS011;68938;48.150;14.004;2023-07-13T05:41:01;8.83;;;5.73;;
3259;SDS011;68938;48.150;14.004;2023-07-13T05:43:33;6.63;;;5.40;;
3259;SDS011;68938;48.150;14.004;2023-07-13T05:46:02;6.57;;;5.87;;
3259;SDS011;68938;48.150;14.004;2023-07-13T05:48:29;6.97;;;6.37;;
3259;SDS011;68938;48.150;14.004;2023-07-13T05:50:58;7.77;;;5.87;;
3259;SDS011;68938;48.150;14.004;2023-07-13T05:53:28;7.37;;;6.60;;
3259;SDS011;68938;48.150;14.004;2023-07-13T05:55:57;7.53;;;5.90;;
3259;SDS011;68938;48.150;14.004;2023-07-13T05:58:28;14.70;;;5.83;;
3259;SDS011;68938;48.150;14.004;2023-07-13T06:01:03;6.93;;;6.23;;
3259;SDS011;68938;48.150;14.004;2023-07-13T06:03:38;8.40;;;5.77;;
3259;SDS011;68938;48.150;14.004;2023-07-13T06:06:06;7.27;;;5.93;;
3259;SDS011;68938;48.150;14.004;2023-07-13T06:08:36;6.87;;;6.27;;
3259;SDS011;68938;48.150;14.004;2023-07-13T06:11:04;6.53;;;5.93;;
3259;SDS011;68938;48.150;14.004;2023-07-13T06:13:33;6.60;;;5.53;;
3259;SDS011;68938;48.150;14.004;2023-07-13T06:16:01;6.63;;;6.13;;
3259;SDS011;68938;48.150;14.004;2023-07-13T06:18:30;7.20;;;5.50;;
3259;SDS011;68938;48.150;14.004;2023-07-13T06:20:59;5.70;;;5.30;;
3259;SDS011;68938;48.150;14.004;2023-07-13T06:23:26;5.90;;;5.20;;
3259;SDS011;68938;48.150;14.004;2023-07-13T06:25:53;8.73;;;5.70;;
3259;SDS011;68938;48.150;14.004;2023-07-13T06:28:20;9.90;;;6.03;;
3259;SDS011;68938;48.150;14.004;2023-07-13T06:30:48;9.93;;;5.67;;
3259;SDS011;68938;48.150;14.004;2023-07-13T06:33:15;6.20;;;5.60;;
3259;SDS011;68938;48.150;14.004;2023-07-13T06:35:42;7.13;;;5.00;;
3259;SDS011;68938;48.150;14.004;2023-07-13T06:38:10;4.80;;;4.43;;
3259;SDS011;68938;48.150;14.004;2023-07-13T06:40:37;5.93;;;5.43;;
3259;SDS011;68938;48.150;14.004;2023-07-13T06:43:06;5.77;;;5.27;;
3259;SDS011;68938;48.150;14.004;2023-07-13T06:45:40;5.60;;;5.10;;
3259;SDS011;68938;48.150;14.004;2023-07-13T06:48:11;6.03;;;5.63;;
3259;SDS011;68938;48.150;14.004;2023-07-13T06:50:39;4.87;;;4.37;;
3259;SDS011;68938;48.150;14.004;2023-07-13T06:53:07;6.07;;;5.57;;
3259;SDS011;68938;48.150;14.004;2023-07-13T06:55:36;5.67;;;5.27;;
3259;SDS011;68938;48.150;14.004;2023-07-13T06:58:03;5.03;;;4.67;;
3259;SDS011;68938;48.150;14.004;2023-07-13T07:00:31;5.50;;;4.97;;
3259;SDS011;68938;48.150;14.004;2023-07-13T07:02:59;5.20;;;4.53;;
3259;SDS011;68938;48.150;14.004;2023-07-13T07:05:28;4.63;;;4.27;;
3259;SDS011;68938;48.150;14.004;2023-07-13T07:07:56;4.30;;;4.00;;
3259;SDS011;68938;48.150;14.004;2023-07-13T07:10:23;6.30;;;4.60;;
3259;SDS011;68938;48.150;14.004;2023-07-13T07:12:50;5.00;;;3.73;;
3259;SDS011;68938;48.150;14.004;2023-07-13T07:15:17;6.00;;;3.90;;
3259;SDS011;68938;48.150;14.004;2023-07-13T07:17:45;3.63;;;3.37;;
3259;SDS011;68938;48.150;14.004;2023-07-13T07:20:12;4.27;;;4.03;;
3259;SDS011;68938;48.150;14.004;2023-07-13T07:22:39;4.20;;;3.70;;
3259;SDS011;68938;48.150;14.004;2023-07-13T07:25:07;4.37;;;3.93;;
3259;SDS011;68938;48.150;14.004;2023-07-13T07:27:35;6.33;;;3.87;;
3259;SDS011;68938;48.150;14.004;2023-07-13T07:30:05;4.23;;;3.93;;
3259;SDS011;68938;48.150;14.004;2023-07-13T07:32:37;7.40;;;3.50;;
3259;SDS011;68938;48.150;14.004;2023-07-13T07:35:07;3.00;;;2.80;;
3259;SDS011;68938;48.150;14.004;2023-07-13T07:37:35;3.97;;;2.97;;
3259;SDS011;68938;48.150;14.004;2023-07-13T07:40:07;3.83;;;3.20;;
3259;SDS011;68938;48.150;14.004;2023-07-13T07:42:37;3.00;;;2.83;;
3259;SDS011;68938;48.150;14.004;2023-07-13T07:45:06;4.77;;;3.17;;
3259;SDS011;68938;48.150;14.004;2023-07-13T07:47:35;3.17;;;2.97;;
3259;SDS011;68938;48.150;14.004;2023-07-13T07:50:03;3.20;;;3.00;;
3259;SDS011;68938;48.150;14.004;2023-07-13T07:52:31;4.00;;;3.63;;
3259;SDS011;68938;48.150;14.004;2023-07-13T07:55:00;4.20;;;3.80;;
3259;SDS011;68938;48.150;14.004;2023-07-13T07:57:30;6.13;;;3.60;;
3259;SDS011;68938;48.150;14.004;2023-07-13T08:00:00;3.53;;;3.33;;
3259;SDS011;68938;48.150;14.004;2023-07-13T08:02:30;3.57;;;3.37;;
3259;SDS011;68938;48.150;14.004;2023-07-13T08:05:00;3.77;;;2.80;;
3259;SDS011;68938;48.150;14.004;2023-07-13T08:07:30;6.00;;;3.60;;
3259;SDS011;68938;48.150;14.004;2023-07-13T08:09:58;3.40;;;3.20;;
3259;SDS011;68938;48.150;14.004;2023-07-13T08:12:26;3.77;;;3.20;;
3259;SDS011;68938;48.150;14.004;2023-07-13T08:14:56;4.20;;;3.60;;
3259;SDS011;68938;48.150;14.004;2023-07-13T08:17:24;4.10;;;3.80;;
3259;SDS011;68938;48.150;14.004;2023-07-13T08:19:52;4.00;;;3.70;;
3259;SDS011;68938;48.150;14.004;2023-07-13T08:22:20;4.00;;;3.70;;
3259;SDS011;68938;48.150;14.004;2023-07-13T08:24:48;3.77;;;3.47;;
3259;SDS011;68938;48.150;14.004;2023-07-13T08:27:16;3.20;;;3.00;;
3259;SDS011;68938;48.150;14.004;2023-07-13T08:29:43;4.77;;;4.33;;
3259;SDS011;68938;48.150;14.004;2023-07-13T08:32:10;6.43;;;3.67;;
3259;SDS011;68938;48.150;14.004;2023-07-13T08:34:37;4.50;;;3.83;;
3259;SDS011;68938;48.150;14.004;2023-07-13T08:37:07;5.77;;;3.73;;
3259;SDS011;68938;48.150;14.004;2023-07-13T08:39:35;3.83;;;3.40;;
3259;SDS011;68938;48.150;14.004;2023-07-13T08:42:14;6.10;;;3.03;;
3259;SDS011;68938;48.150;14.004;2023-07-13T08:47:46;5.50;;;3.80;;
3259;SDS011;68938;48.150;14.004;2023-07-13T08:50:41;3.77;;;3.47;;
3259;SDS011;68938;48.150;14.004;2023-07-13T08:53:55;5.20;;;3.67;;
3259;SDS011;68938;48.150;14.004;2023-07-13T08:56:28;5.40;;;3.17;;
3259;SDS011;68938;48.150;14.004;2023-07-13T08:58:57;4.90;;;3.03;;
3259;SDS011;68938;48.150;14.004;2023-07-13T09:10:51;3.73;;;2.97;;
3259;SDS011;68938;48.150;14.004;2023-07-13T09:13:37;2.73;;;2.53;;
3259;SDS011;68938;48.150;14.004;2023-07-13T09:16:28;4.20;;;3.80;;
3259;SDS011;68938;48.150;14.004;2023-07-13T09:18:56;3.73;;;3.37;;
3259;SDS011;68938;48.150;14.004;2023-07-13T09:21:32;3.57;;;3.27;;
3259;SDS011;68938;48.150;14.004;2023-07-13T09:24:22;5.63;;;3.47;;
3259;SDS011;68938;48.150;14.004;2023-07-13T09:27:11;4.73;;;3.50;;
3259;SDS011;68938;48.150;14.004;2023-07-13T09:29:45;3.60;;;3.30;;
3259;SDS011;68938;48.150;14.004;2023-07-13T09:32:21;4.60;;;3.50;;
3259;SDS011;68938;48.150;14.004;2023-07-13T09:34:52;4.70;;;3.00;;
3259;SDS011;68938;48.150;14.004;2023-07-13T09:37:21;3.90;;;3.47;;
3259;SDS011;68938;48.150;14.004;2023-07-13T09:39:55;3.57;;;2.73;;
3259;SDS011;68938;48.150;14.004;2023-07-13T09:42:26;3.90;;;3.40;;
3259;SDS011;68938;48.150;14.004;2023-07-13T09:44:55;3.07;;;2.87;;
3259;SDS011;68938;48.150;14.004;2023-07-13T09:47:29;3.63;;;3.10;;
3259;SDS011;68938;48.150;14.004;2023-07-13T09:50:00;3.67;;;3.37;;
3259;SDS011;68938;48.150;14.004;2023-07-13T09:52:46;5.40;;;3.80;;
3259;SDS011;68938;48.150;14.004;2023-07-13T09:55:25;3.47;;;3.17;;
3259;SDS011;68938;48.150;14.004;2023-07-13T09:58:04;4.50;;;4.17;;
3259;SDS011;68938;48.150;14.004;2023-07-13T10:01:00;5.90;;;4.93;;
3259;SDS011;68938;48.150;14.004;2023-07-13T10:03:35;4.00;;;3.70;;
3259;SDS011;68938;48.150;14.004;2023-07-13T10:06:16;3.90;;;3.50;;
3259;SDS011;68938;48.150;14.004;2023-07-13T10:08:45;3.47;;;3.17;;
3259;SDS011;68938;48.150;14.004;2023-07-13T10:11:25;4.27;;;3.93;;
3259;SDS011;68938;48.150;14.004;2023-07-13T10:13:59;4.07;;;3.77;;
3259;SDS011;68938;48.150;14.004;2023-07-13T10:16:36;3.83;;;3.53;;
3259;SDS011;68938;48.150;14.004;2023-07-13T10:19:10;3.40;;;3.20;;
3259;SDS011;68938;48.150;14.004;2023-07-13T10:24:24;6.03;;;3.63;;
3259;SDS011;68938;48.150;14.004;2023-07-13T10:27:04;4.00;;;3.70;;
3259;SDS011;68938;48.150;14.004;2023-07-13T10:29:55;3.70;;;3.40;;
3259;SDS011;68938;48.150;14.004;2023-07-13T10:32:31;2.90;;;2.70;;
3259;SDS011;68938;48.150;14.004;2023-07-13T10:35:01;3.80;;;3.50;;
3259;SDS011;68938;48.150;14.004;2023-07-13T10:37:36;3.13;;;3.03;;
3259;SDS011;68938;48.150;14.004;2023-07-13T10:40:19;3.30;;;3.10;;
3259;SDS011;68938;48.150;14.004;2023-07-13T10:42:54;3.73;;;3.43;;
3259;SDS011;68938;48.150;14.004;2023-07-13T10:45:25;3.73;;;3.30;;
3259;SDS011;68938;48.150;14.004;2023-07-13T10:47:56;3.13;;;2.93;;
3259;SDS011;68938;48.150;14.004;2023-07-13T10:50:24;3.73;;;3.00;;
3259;SDS011;68938;48.150;14.004;2023-07-13T10:52:55;3.20;;;2.97;;
3259;SDS011;68938;48.150;14.004;2023-07-13T10:58:19;3.63;;;3.27;;
3259;SDS011;68938;48.150;14.004;2023-07-13T11:01:11;2.97;;;2.80;;
3259;SDS011;68938;48.150;14.004;2023-07-13T11:08:53;3.20;;;2.90;;
3259;SDS011;68938;48.150;14.004;2023-07-13T11:14:04;4.40;;;3.17;;
3259;SDS011;68938;48.150;14.004;2023-07-13T11:16:57;6.87;;;4.13;;
3259;SDS011;68938;48.150;14.004;2023-07-13T11:19:26;3.27;;;3.00;;
3259;SDS011;68938;48.150;14.004;2023-07-13T11:38:41;3.30;;;3.10;;
3259;SDS011;68938;48.150;14.004;2023-07-13T11:44:17;4.00;;;3.60;;
3259;SDS011;68938;48.150;14.004;2023-07-13T11:46:50;4.60;;;4.30;;
3259;SDS011;68938;48.150;14.004;2023-07-13T11:49:23;2.87;;;2.77;;
3259;SDS011;68938;48.150;14.004;2023-07-13T11:51:53;4.90;;;4.50;;
3259;SDS011;68938;48.150;14.004;2023-07-13T11:54:41;4.50;;;4.20;;
3259;SDS011;68938;48.150;14.004;2023-07-13T11:57:32;4.07;;;3.77;;
3259;SDS011;68938;48.150;14.004;2023-07-13T12:00:03;3.17;;;2.97;;
3259;SDS011;68938;48.150;14.004;2023-07-13T12:02:39;3.67;;;3.47;;
3259;SDS011;68938;48.150;14.004;2023-07-13T12:05:12;4.20;;;3.90;;
3259;SDS011;68938;48.150;14.004;2023-07-13T12:07:44;5.97;;;4.83;;
3259;SDS011;68938;48.150;14.004;2023-07-13T12:10:19;3.83;;;3.53;;
3259;SDS011;68938;48.150;14.004;2023-07-13T12:12:56;4.30;;;4.00;;
3259;SDS011;68938;48.150;14.004;2023-07-13T12:15:28;4.17;;;3.60;;
3259;SDS011;68938;48.150;14.004;2023-07-13T12:18:23;3.93;;;3.40;;
3259;SDS011;68938;48.150;14.004;2023-07-13T12:20:58;3.50;;;3.30;;
3259;SDS011;68938;48.150;14.004;2023-07-13T12:23:30;5.37;;;4.20;;
3259;SDS011;68938;48.150;14.004;2023-07-13T12:26:01;4.37;;;4.07;;
3259;SDS011;68938;48.150;14.004;2023-07-13T12:31:06;4.17;;;3.90;;
3259;SDS011;68938;48.150;14.004;2023-07-13T12:33:55;3.07;;;2.87;;
3259;SDS011;68938;48.150;14.004;2023-07-13T12:36:47;4.97;;;3.30;;
3259;SDS011;68938;48.150;14.004;2023-07-13T12:44:56;4.70;;;4.30;;
3259;SDS011;68938;48.150;14.004;2023-07-13T12:47:28;2.27;;;2.07;;
3259;SDS011;68938;48.150;14.004;2023-07-13T12:49:57;3.23;;;2.00;;
3259;SDS011;68938;48.150;14.004;2023-07-13T12:52:35;1.93;;;1.60;;
3259;SDS011;68938;48.150;14.004;2023-07-13T12:55:06;4.20;;;2.07;;
3259;SDS011;68938;48.150;14.004;2023-07-13T12:57:45;1.97;;;1.87;;
3259;SDS011;68938;48.150;14.004;2023-07-13T13:00:33;1.80;;;1.70;;
3259;SDS011;68938;48.150;14.004;2023-07-13T13:03:05;1.67;;;1.67;;
3259;SDS011;68938;48.150;14.004;2023-07-13T13:06:36;1.90;;;1.80;;
3259;SDS011;68938;48.150;14.004;2023-07-13T13:08:45;2.03;;;1.87;;
3259;SDS011;68938;48.150;14.004;2023-07-13T13:11:18;3.90;;;1.90;;
3259;SDS011;68938;48.150;14.004;2023-07-13T13:13:47;3.27;;;1.70;;
3259;SDS011;68938;48.150;14.004;2023-07-13T13:18:57;2.33;;;1.77;;
3259;SDS011;68938;48.150;14.004;2023-07-13T13:21:32;1.70;;;1.70;;
3259;SDS011;68938;48.150;14.004;2023-07-13T13:23:59;2.93;;;2.47;;
3259;SDS011;68938;48.150;14.004;2023-07-13T13:26:26;2.10;;;1.80;;
3259;SDS011;68938;48.150;14.004;2023-07-13T13:28:53;5.57;;;2.07;;
3259;SDS011;68938;48.150;14.004;2023-07-13T13:31:20;2.73;;;1.90;;
3259;SDS011;68938;48.150;14.004;2023-07-13T13:33:49;4.97;;;2.33;;
3259;SDS011;68938;48.150;14.004;2023-07-13T13:36:17;1.90;;;1.80;;
3259;SDS011;68938;48.150;14.004;2023-07-13T13:38:49;2.23;;;2.03;;
3259;SDS011;68938;48.150;14.004;2023-07-13T13:41:18;2.13;;;2.03;;
3259;SDS011;68938;48.150;14.004;2023-07-13T13:43:47;2.13;;;1.90;;
3259;SDS011;68938;48.150;14.004;2023-07-13T13:46:22;2.33;;;2.00;;
3259;SDS011;68938;48.150;14.004;2023-07-13T13:48:51;4.60;;;2.47;;
3259;SDS011;68938;48.150;14.004;2023-07-13T13:51:20;3.03;;;2.07;;
3259;SDS011;68938;48.150;14.004;2023-07-13T13:53:49;3.33;;;2.30;;
3259;SDS011;68938;48.150;14.004;2023-07-13T13:56:17;2.40;;;2.20;;
3259;SDS011;68938;48.150;14.004;2023-07-13T13:58:47;2.23;;;2.07;;
3259;SDS011;68938;48.150;14.004;2023-07-13T14:01:20;2.27;;;2.03;;
3259;SDS011;68938;48.150;14.004;2023-07-13T14:03:51;2.30;;;2.00;;
3259;SDS011;68938;48.150;14.004;2023-07-13T14:06:18;5.50;;;2.10;;
3259;SDS011;68938;48.150;14.004;2023-07-13T14:08:47;4.60;;;1.93;;
3259;SDS011;68938;48.150;14.004;2023-07-13T14:11:15;1.93;;;1.80;;
3259;SDS011;68938;48.150;14.004;2023-07-13T14:13:48;2.80;;;2.23;;
3259;SDS011;68938;48.150;14.004;2023-07-13T14:16:19;2.20;;;1.77;;
3259;SDS011;68938;48.150;14.004;2023-07-13T14:18:49;2.13;;;1.93;;
3259;SDS011;68938;48.150;14.004;2023-07-13T14:21:19;2.00;;;1.90;;
3259;SDS011;68938;48.150;14.004;2023-07-13T14:23:48;1.87;;;1.63;;
3259;SDS011;68938;48.150;14.004;2023-07-13T14:26:17;1.60;;;1.60;;
3259;SDS011;68938;48.150;14.004;2023-07-13T14:28:52;2.23;;;1.80;;
3259;SDS011;68938;48.150;14.004;2023-07-13T14:31:23;2.30;;;1.40;;
3259;SDS011;68938;48.150;14.004;2023-07-13T14:33:56;1.57;;;1.47;;
3259;SDS011;68938;48.150;14.004;2023-07-13T14:36:34;4.00;;;2.30;;
3259;SDS011;68938;48.150;14.004;2023-07-13T14:39:13;3.10;;;2.17;;
3259;SDS011;68938;48.150;14.004;2023-07-13T14:41:43;3.10;;;2.27;;
3259;SDS011;68938;48.150;14.004;2023-07-13T14:44:11;2.60;;;2.10;;
3259;SDS011;68938;48.150;14.004;2023-07-13T14:46:44;2.00;;;1.90;;
3259;SDS011;68938;48.150;14.004;2023-07-13T14:49:29;2.03;;;1.93;;
3259;SDS011;68938;48.150;14.004;2023-07-13T14:52:13;2.03;;;1.93;;
3259;SDS011;68938;48.150;14.004;2023-07-13T14:54:44;3.23;;;2.60;;
3259;SDS011;68938;48.150;14.004;2023-07-13T14:57:18;3.43;;;2.20;;
3259;SDS011;68938;48.150;14.004;2023-07-13T14:59:47;2.20;;;1.93;;
3259;SDS011;68938;48.150;14.004;2023-07-13T15:02:33;2.00;;;1.80;;
3259;SDS011;68938;48.150;14.004;2023-07-13T15:05:05;2.47;;;2.33;;
3259;SDS011;68938;48.150;14.004;2023-07-13T15:07:47;4.97;;;2.00;;
3259;SDS011;68938;48.150;14.004;2023-07-13T15:10:17;2.57;;;1.93;;
3259;SDS011;68938;48.150;14.004;2023-07-13T15:12:50;2.60;;;2.40;;
3259;SDS011;68938;48.150;14.004;2023-07-13T15:15:19;2.17;;;2.07;;
3259;SDS011;68938;48.150;14.004;2023-07-13T15:17:47;3.23;;;2.73;;
3259;SDS011;68938;48.150;14.004;2023-07-13T15:20:16;2.23;;;2.13;;
3259;SDS011;68938;48.150;14.004;2023-07-13T15:22:59;2.07;;;1.87;;
3259;SDS011;68938;48.150;14.004;2023-07-13T15:25:28;2.33;;;2.20;;
3259;SDS011;68938;48.150;14.004;2023-07-13T15:27:58;2.00;;;1.90;;
3259;SDS011;68938;48.150;14.004;2023-07-13T15:30:29;5.07;;;1.90;;
3259;SDS011;68938;48.150;14.004;2023-07-13T15:33:24;2.77;;;1.57;;
3259;SDS011;68938;48.150;14.004;2023-07-13T15:35:55;2.10;;;1.90;;
3259;SDS011;68938;48.150;14.004;2023-07-13T15:38:24;3.50;;;1.90;;
3259;SDS011;68938;48.150;14.004;2023-07-13T15:40:56;2.00;;;1.90;;
3259;SDS011;68938;48.150;14.004;2023-07-13T15:43:39;1.70;;;1.60;;
3259;SDS011;68938;48.150;14.004;2023-07-13T15:46:07;1.90;;;1.80;;
3259;SDS011;68938;48.150;14.004;2023-07-13T15:48:34;3.70;;;2.10;;
3259;SDS011;68938;48.150;14.004;2023-07-13T15:51:02;2.77;;;2.57;;
3259;SDS011;68938;48.150;14.004;2023-07-13T15:53:32;1.83;;;1.73;;
3259;SDS011;68938;48.150;14.004;2023-07-13T15:56:02;2.10;;;2.00;;
3259;SDS011;68938;48.150;14.004;2023-07-13T15:58:46;1.80;;;1.70;;
3259;SDS011;68938;48.150;14.004;2023-07-13T16:01:13;2.20;;;2.10;;
3259;SDS011;68938;48.150;14.004;2023-07-13T16:03:40;3.63;;;2.00;;
3259;SDS011;68938;48.150;14.004;2023-07-13T16:06:29;2.30;;;2.10;;
3259;SDS011;68938;48.150;14.004;2023-07-13T16:09:01;4.80;;;1.80;;
3259;SDS011;68938;48.150;14.004;2023-07-13T16:11:34;2.33;;;1.90;;